Terminal Aerodrome Forecast
Issued by NWS

Home | Current Version | Previous Version | Text Only | Print | Product List | Glossary On
Versions: 1 2 3 4 5 6 7 8 9 10 11 12 13 14
000
FTUS45 KTFX 171120
TAFCTB
TAF
KCTB 171120Z 1712/1812 25027G39KT P6SM SCT130 WS020/25050KT
     FM171400 24029G43KT P6SM SCT140 BKN200
     FM171600 24031G45KT P6SM FEW140 SCT250=

USA.gov is the U.S. government's official web portal to all federal, state and local government web resources and services.